North Cascades National Park, WA

12:37 PM PST on November 28, 2014 (GMT -0800)
Skagit Regional | Change Station
CLOSE
Current Station
Airport
Location: Burlington,
Elevation: 144 ft
Nearby Weather Stations
Active Advisory: Flood Warning Active Notice: Record Report

Elev 144 ft 48.47 °N, 122.42 °W | Updated 17 minutes ago

Rain
Rain
37 °F
Feels Like 34 °F
N
5
Wind Variable Wind from SSE

Today
High -- | Low -- °F
--% Chance of Precip.
Yesterday
High -- | Low -- °F
Precip. -- in
7:32 AM 4:14 PM
Waxing Crescent, 43% visible
Pressure 29.53 in
Visibility 7.0 miles
Clouds Few 100 ft
Scattered Clouds 1800 ft
Mostly Cloudy 2300 ft
Windchill 34 °F
Dew Point 37 °F
Humidity 100%
Rainfall 1.36 in
Snow Depth Not available.
UV 1 out of 12
Pollen .10 out of 12
Air Quality Not available.
Flu Activity Not available.
METAR KBVS 282020Z AUTO 16004KT 7SM FEW001 SCT018 BKN023 03/03 A2953 RMK A01 P002

More Conditions Fewer Conditions

Pressure 29.53 in
Visibility 7.0 miles
Clouds Few 100 ft
Scattered Clouds 1800 ft
Mostly Cloudy 2300 ft
Windchill 34 °F
Dew Point 37 °F
Humidity 100%
Rainfall 1.36 in
Snow Depth Not available.
UV 1 out of 12
Pollen .10 out of 12
Air Quality Not available.
Flu Activity Not available.
METAR KBVS 282020Z AUTO 16004KT 7SM FEW001 SCT018 BKN023 03/03 A2953 RMK A01 P002

More Conditions Fewer Conditions

10-Day Weather Forecast

Almanac

Astronomy

Nov. 28, 2014 Rise Set
Actual Time
Civil Twilight
Nautical Twilight
Astronomical Twilight
Moon
Length of Visible Light
Length of Day
Tomorrow will be .
, % of the Moon is Illuminated

Today's Extremes

State Highs State Lows

Community

WunderPhotos

Upload Photos

1,774,274 photos uploaded!

WunderBlogs® & News

Nearby

Air Quality

  Air Quality AQ Index Pollutant
Not available.

Snow Depth

Station Depth Elevation

Earthquake Activity

City Distance Mag. Time & Date
Minimum magnitude displayed is 2.5.

Coastal Water Temperatures

Place Temperature

Nearby Weather Stations